sensor_id;sensor_type;location;lat;lon;timestamp;temperature;humidity
54006;DHT22;39919;38.160;-122.260;2023-02-28T00:01:46;10.30;88.60
54006;DHT22;39919;38.160;-122.260;2023-02-28T00:04:15;10.20;88.70
54006;DHT22;39919;38.160;-122.260;2023-02-28T00:06:44;10.20;89.00
54006;DHT22;39919;38.160;-122.260;2023-02-28T00:09:13;10.20;90.00
54006;DHT22;39919;38.160;-122.260;2023-02-28T00:11:42;10.10;89.80
54006;DHT22;39919;38.160;-122.260;2023-02-28T00:14:12;10.10;90.00
54006;DHT22;39919;38.160;-122.260;2023-02-28T00:16:41;10.10;90.10
54006;DHT22;39919;38.160;-122.260;2023-02-28T00:19:11;10.00;90.20
54006;DHT22;39919;38.160;-122.260;2023-02-28T00:21:41;10.00;90.30
54006;DHT22;39919;38.160;-122.260;2023-02-28T00:24:10;9.90;90.60
54006;DHT22;39919;38.160;-122.260;2023-02-28T00:26:39;9.90;91.10
54006;DHT22;39919;38.160;-122.260;2023-02-28T00:29:09;9.90;91.20
54006;DHT22;39919;38.160;-122.260;2023-02-28T00:31:38;9.80;91.20
54006;DHT22;39919;38.160;-122.260;2023-02-28T00:34:07;9.80;91.20
54006;DHT22;39919;38.160;-122.260;2023-02-28T00:36:38;9.80;91.30
54006;DHT22;39919;38.160;-122.260;2023-02-28T00:39:26;9.80;91.30
54006;DHT22;39919;38.160;-122.260;2023-02-28T00:41:55;9.70;91.30
54006;DHT22;39919;38.160;-122.260;2023-02-28T00:44:24;9.70;91.30
54006;DHT22;39919;38.160;-122.260;2023-02-28T00:46:53;9.70;91.50
54006;DHT22;39919;38.160;-122.260;2023-02-28T00:49:23;9.70;91.70
54006;DHT22;39919;38.160;-122.260;2023-02-28T00:51:54;9.60;91.90
54006;DHT22;39919;38.160;-122.260;2023-02-28T00:54:24;9.60;91.90
54006;DHT22;39919;38.160;-122.260;2023-02-28T00:56:53;9.60;92.00
54006;DHT22;39919;38.160;-122.260;2023-02-28T00:59:22;9.60;92.10
54006;DHT22;39919;38.160;-122.260;2023-02-28T01:01:51;9.60;92.10
54006;DHT22;39919;38.160;-122.260;2023-02-28T01:04:20;9.50;92.10
54006;DHT22;39919;38.160;-122.260;2023-02-28T01:06:54;9.60;92.00
54006;DHT22;39919;38.160;-122.260;2023-02-28T01:09:23;9.50;91.10
54006;DHT22;39919;38.160;-122.260;2023-02-28T01:11:52;9.50;90.60
54006;DHT22;39919;38.160;-122.260;2023-02-28T01:14:21;9.50;90.30
54006;DHT22;39919;38.160;-122.260;2023-02-28T01:16:50;9.40;89.20
54006;DHT22;39919;38.160;-122.260;2023-02-28T01:19:23;9.40;88.90
54006;DHT22;39919;38.160;-122.260;2023-02-28T01:21:53;9.40;89.40
54006;DHT22;39919;38.160;-122.260;2023-02-28T01:24:22;9.30;90.10
54006;DHT22;39919;38.160;-122.260;2023-02-28T01:26:52;9.30;90.60
54006;DHT22;39919;38.160;-122.260;2023-02-28T01:29:21;9.30;90.90
54006;DHT22;39919;38.160;-122.260;2023-02-28T01:31:50;9.20;91.10
54006;DHT22;39919;38.160;-122.260;2023-02-28T01:34:19;9.20;91.30
54006;DHT22;39919;38.160;-122.260;2023-02-28T01:36:48;9.20;91.30
54006;DHT22;39919;38.160;-122.260;2023-02-28T01:39:19;9.20;91.40
54006;DHT22;39919;38.160;-122.260;2023-02-28T01:41:48;9.10;91.50
54006;DHT22;39919;38.160;-122.260;2023-02-28T01:47:23;8.90;91.80
54006;DHT22;39919;38.160;-122.260;2023-02-28T01:49:54;8.80;91.80
54006;DHT22;39919;38.160;-122.260;2023-02-28T01:52:23;8.70;91.70
54006;DHT22;39919;38.160;-122.260;2023-02-28T01:54:57;8.60;91.70
54006;DHT22;39919;38.160;-122.260;2023-02-28T01:57:30;8.60;91.40
54006;DHT22;39919;38.160;-122.260;2023-02-28T02:00:08;8.40;91.40
54006;DHT22;39919;38.160;-122.260;2023-02-28T02:02:41;8.40;91.50
54006;DHT22;39919;38.160;-122.260;2023-02-28T02:05:13;8.30;91.50
54006;DHT22;39919;38.160;-122.260;2023-02-28T02:07:47;8.20;91.80
54006;DHT22;39919;38.160;-122.260;2023-02-28T02:10:20;8.10;92.00
54006;DHT22;39919;38.160;-122.260;2023-02-28T02:13:14;8.00;92.30
54006;DHT22;39919;38.160;-122.260;2023-02-28T02:15:54;8.00;92.50
54006;DHT22;39919;38.160;-122.260;2023-02-28T02:18:31;7.90;92.60
54006;DHT22;39919;38.160;-122.260;2023-02-28T02:21:37;7.80;92.70
54006;DHT22;39919;38.160;-122.260;2023-02-28T02:27:47;7.70;93.00
54006;DHT22;39919;38.160;-122.260;2023-02-28T02:30:40;7.70;93.10
54006;DHT22;39919;38.160;-122.260;2023-02-28T02:33:33;7.60;93.30
54006;DHT22;39919;38.160;-122.260;2023-02-28T02:36:13;7.60;93.30
54006;DHT22;39919;38.160;-122.260;2023-02-28T02:38:50;7.60;93.20
54006;DHT22;39919;38.160;-122.260;2023-02-28T02:41:23;7.60;92.90
54006;DHT22;39919;38.160;-122.260;2023-02-28T02:43:56;7.60;92.80
54006;DHT22;39919;38.160;-122.260;2023-02-28T02:46:30;7.50;92.90
54006;DHT22;39919;38.160;-122.260;2023-02-28T02:49:05;7.50;93.00
54006;DHT22;39919;38.160;-122.260;2023-02-28T02:51:37;7.50;93.10
54006;DHT22;39919;38.160;-122.260;2023-02-28T02:54:10;7.50;93.30
54006;DHT22;39919;38.160;-122.260;2023-02-28T02:56:44;7.50;93.40
54006;DHT22;39919;38.160;-122.260;2023-02-28T02:59:15;7.50;93.50
54006;DHT22;39919;38.160;-122.260;2023-02-28T03:01:50;7.50;93.50
54006;DHT22;39919;38.160;-122.260;2023-02-28T03:04:22;7.50;93.60
54006;DHT22;39919;38.160;-122.260;2023-02-28T03:06:53;7.50;93.70
54006;DHT22;39919;38.160;-122.260;2023-02-28T03:09:23;7.60;93.80
54006;DHT22;39919;38.160;-122.260;2023-02-28T03:11:54;7.50;94.10
54006;DHT22;39919;38.160;-122.260;2023-02-28T03:14:34;7.50;94.10
54006;DHT22;39919;38.160;-122.260;2023-02-28T03:17:22;7.50;94.20
54006;DHT22;39919;38.160;-122.260;2023-02-28T03:20:02;7.60;94.40
54006;DHT22;39919;38.160;-122.260;2023-02-28T03:22:57;7.60;94.50
54006;DHT22;39919;38.160;-122.260;2023-02-28T03:25:34;7.60;95.20
54006;DHT22;39919;38.160;-122.260;2023-02-28T03:28:11;7.60;95.30
54006;DHT22;39919;38.160;-122.260;2023-02-28T03:30:47;7.60;95.40
54006;DHT22;39919;38.160;-122.260;2023-02-28T03:33:22;7.60;95.60
54006;DHT22;39919;38.160;-122.260;2023-02-28T03:35:54;7.60;96.10
54006;DHT22;39919;38.160;-122.260;2023-02-28T03:38:30;7.60;96.30
54006;DHT22;39919;38.160;-122.260;2023-02-28T03:41:05;7.60;96.50
54006;DHT22;39919;38.160;-122.260;2023-02-28T03:43:38;7.60;96.60
54006;DHT22;39919;38.160;-122.260;2023-02-28T03:46:11;7.60;96.90
54006;DHT22;39919;38.160;-122.260;2023-02-28T03:48:45;7.50;97.30
54006;DHT22;39919;38.160;-122.260;2023-02-28T03:51:17;7.50;97.70
54006;DHT22;39919;38.160;-122.260;2023-02-28T03:53:52;7.50;98.00
54006;DHT22;39919;38.160;-122.260;2023-02-28T03:56:24;7.40;98.30
54006;DHT22;39919;38.160;-122.260;2023-02-28T03:59:01;7.40;98.40
54006;DHT22;39919;38.160;-122.260;2023-02-28T04:01:36;7.40;98.50
54006;DHT22;39919;38.160;-122.260;2023-02-28T04:04:08;7.30;98.50
54006;DHT22;39919;38.160;-122.260;2023-02-28T04:06:38;7.30;98.40
54006;DHT22;39919;38.160;-122.260;2023-02-28T04:09:11;7.30;98.10
54006;DHT22;39919;38.160;-122.260;2023-02-28T04:11:41;7.30;98.00
54006;DHT22;39919;38.160;-122.260;2023-02-28T04:14:11;7.20;98.00
54006;DHT22;39919;38.160;-122.260;2023-02-28T04:16:43;7.20;98.30
54006;DHT22;39919;38.160;-122.260;2023-02-28T04:19:13;7.20;98.30
54006;DHT22;39919;38.160;-122.260;2023-02-28T04:21:43;7.20;98.30
54006;DHT22;39919;38.160;-122.260;2023-02-28T04:24:16;7.10;98.40
54006;DHT22;39919;38.160;-122.260;2023-02-28T04:26:47;7.10;98.50
54006;DHT22;39919;38.160;-122.260;2023-02-28T04:29:20;7.10;98.70
54006;DHT22;39919;38.160;-122.260;2023-02-28T04:31:49;7.10;98.90
54006;DHT22;39919;38.160;-122.260;2023-02-28T04:34:20;7.10;99.10
54006;DHT22;39919;38.160;-122.260;2023-02-28T04:36:50;7.00;99.10
54006;DHT22;39919;38.160;-122.260;2023-02-28T04:39:24;7.00;99.10
54006;DHT22;39919;38.160;-122.260;2023-02-28T04:41:53;7.00;99.20
54006;DHT22;39919;38.160;-122.260;2023-02-28T04:44:22;7.00;99.40
54006;DHT22;39919;38.160;-122.260;2023-02-28T04:46:51;6.90;99.60
54006;DHT22;39919;38.160;-122.260;2023-02-28T04:49:20;6.90;99.80
54006;DHT22;39919;38.160;-122.260;2023-02-28T04:51:49;6.90;99.90
54006;DHT22;39919;38.160;-122.260;2023-02-28T04:54:21;6.90;99.90
54006;DHT22;39919;38.160;-122.260;2023-02-28T04:56:50;6.90;99.90
54006;DHT22;39919;38.160;-122.260;2023-02-28T04:59:19;6.90;99.90
54006;DHT22;39919;38.160;-122.260;2023-02-28T05:01:49;6.90;99.90
54006;DHT22;39919;38.160;-122.260;2023-02-28T05:04:18;6.90;99.70
54006;DHT22;39919;38.160;-122.260;2023-02-28T05:06:47;6.90;99.40
54006;DHT22;39919;38.160;-122.260;2023-02-28T05:09:16;6.90;98.90
54006;DHT22;39919;38.160;-122.260;2023-02-28T05:11:47;6.90;98.80
54006;DHT22;39919;38.160;-122.260;2023-02-28T05:14:16;6.90;98.80
54006;DHT22;39919;38.160;-122.260;2023-02-28T05:16:45;6.90;98.60
54006;DHT22;39919;38.160;-122.260;2023-02-28T05:19:14;6.90;98.40
54006;DHT22;39919;38.160;-122.260;2023-02-28T05:21:51;6.90;98.40
54006;DHT22;39919;38.160;-122.260;2023-02-28T05:24:20;6.90;98.40
54006;DHT22;39919;38.160;-122.260;2023-02-28T05:26:53;6.80;98.40
54006;DHT22;39919;38.160;-122.260;2023-02-28T05:29:23;6.80;98.50
54006;DHT22;39919;38.160;-122.260;2023-02-28T05:31:52;6.80;98.80
54006;DHT22;39919;38.160;-122.260;2023-02-28T05:34:21;6.70;98.70
54006;DHT22;39919;38.160;-122.260;2023-02-28T05:36:50;6.70;99.00
54006;DHT22;39919;38.160;-122.260;2023-02-28T05:39:19;6.70;99.50
54006;DHT22;39919;38.160;-122.260;2023-02-28T05:41:48;6.70;99.70
54006;DHT22;39919;38.160;-122.260;2023-02-28T05:44:19;6.70;99.90
54006;DHT22;39919;38.160;-122.260;2023-02-28T05:46:48;6.70;99.90
54006;DHT22;39919;38.160;-122.260;2023-02-28T05:49:17;6.80;99.90
54006;DHT22;39919;38.160;-122.260;2023-02-28T05:51:46;6.80;99.90
54006;DHT22;39919;38.160;-122.260;2023-02-28T05:54:15;6.80;99.90
54006;DHT22;39919;38.160;-122.260;2023-02-28T05:56:45;6.80;99.90
54006;DHT22;39919;38.160;-122.260;2023-02-28T05:59:14;6.80;99.90
54006;DHT22;39919;38.160;-122.260;2023-02-28T06:01:46;6.80;99.90
54006;DHT22;39919;38.160;-122.260;2023-02-28T06:04:17;6.90;99.90
54006;DHT22;39919;38.160;-122.260;2023-02-28T06:06:47;6.90;99.90
54006;DHT22;39919;38.160;-122.260;2023-02-28T06:09:17;6.90;99.90
54006;DHT22;39919;38.160;-122.260;2023-02-28T06:11:47;6.90;99.80
54006;DHT22;39919;38.160;-122.260;2023-02-28T06:14:17;6.90;99.60
54006;DHT22;39919;38.160;-122.260;2023-02-28T06:16:48;7.00;99.50
54006;DHT22;39919;38.160;-122.260;2023-02-28T06:19:18;7.00;99.60
54006;DHT22;39919;38.160;-122.260;2023-02-28T06:21:49;7.00;99.60
54006;DHT22;39919;38.160;-122.260;2023-02-28T06:24:19;7.00;99.70
54006;DHT22;39919;38.160;-122.260;2023-02-28T06:26:48;7.10;99.90
54006;DHT22;39919;38.160;-122.260;2023-02-28T06:29:18;7.10;99.90
54006;DHT22;39919;38.160;-122.260;2023-02-28T06:31:48;7.10;99.90
54006;DHT22;39919;38.160;-122.260;2023-02-28T06:34:17;7.20;99.90
54006;DHT22;39919;38.160;-122.260;2023-02-28T06:36:46;7.10;99.80
54006;DHT22;39919;38.160;-122.260;2023-02-28T06:39:21;7.20;99.90
54006;DHT22;39919;38.160;-122.260;2023-02-28T06:41:50;7.20;99.90
54006;DHT22;39919;38.160;-122.260;2023-02-28T06:44:20;7.20;99.90
54006;DHT22;39919;38.160;-122.260;2023-02-28T06:46:50;7.20;99.90
54006;DHT22;39919;38.160;-122.260;2023-02-28T06:49:20;7.20;99.90
54006;DHT22;39919;38.160;-122.260;2023-02-28T06:51:49;7.20;99.90
54006;DHT22;39919;38.160;-122.260;2023-02-28T06:54:18;7.20;99.90
54006;DHT22;39919;38.160;-122.260;2023-02-28T06:56:47;7.20;99.90
54006;DHT22;39919;38.160;-122.260;2023-02-28T06:59:16;7.20;99.90
54006;DHT22;39919;38.160;-122.260;2023-02-28T07:01:45;7.20;99.90
54006;DHT22;39919;38.160;-122.260;2023-02-28T07:04:16;7.20;99.90
54006;DHT22;39919;38.160;-122.260;2023-02-28T07:06:45;7.20;99.90
54006;DHT22;39919;38.160;-122.260;2023-02-28T07:09:14;7.20;99.90
54006;DHT22;39919;38.160;-122.260;2023-02-28T07:11:43;7.20;99.90
54006;DHT22;39919;38.160;-122.260;2023-02-28T07:14:12;7.20;99.60
54006;DHT22;39919;38.160;-122.260;2023-02-28T07:16:42;7.20;99.20
54006;DHT22;39919;38.160;-122.260;2023-02-28T07:19:12;7.20;99.20
54006;DHT22;39919;38.160;-122.260;2023-02-28T07:21:43;7.20;99.30
54006;DHT22;39919;38.160;-122.260;2023-02-28T07:24:12;7.10;99.60
54006;DHT22;39919;38.160;-122.260;2023-02-28T07:26:42;7.10;99.80
54006;DHT22;39919;38.160;-122.260;2023-02-28T07:29:11;7.10;99.90
54006;DHT22;39919;38.160;-122.260;2023-02-28T07:31:40;7.00;99.90
54006;DHT22;39919;38.160;-122.260;2023-02-28T07:34:09;7.00;99.90
54006;DHT22;39919;38.160;-122.260;2023-02-28T07:36:43;6.90;99.90
54006;DHT22;39919;38.160;-122.260;2023-02-28T07:39:14;6.90;99.90
54006;DHT22;39919;38.160;-122.260;2023-02-28T07:41:43;6.90;99.90
54006;DHT22;39919;38.160;-122.260;2023-02-28T07:44:12;6.80;99.90
54006;DHT22;39919;38.160;-122.260;2023-02-28T07:46:42;6.70;99.90
54006;DHT22;39919;38.160;-122.260;2023-02-28T07:49:11;6.70;99.90
54006;DHT22;39919;38.160;-122.260;2023-02-28T07:51:42;6.70;99.90
54006;DHT22;39919;38.160;-122.260;2023-02-28T07:54:11;6.60;99.90
54006;DHT22;39919;38.160;-122.260;2023-02-28T07:56:40;6.50;99.90
54006;DHT22;39919;38.160;-122.260;2023-02-28T07:59:09;6.50;99.90
54006;DHT22;39919;38.160;-122.260;2023-02-28T08:01:38;6.40;99.90
54006;DHT22;39919;38.160;-122.260;2023-02-28T08:04:07;6.40;99.90
54006;DHT22;39919;38.160;-122.260;2023-02-28T08:06:36;6.40;99.90
54006;DHT22;39919;38.160;-122.260;2023-02-28T08:09:07;6.30;99.90
54006;DHT22;39919;38.160;-122.260;2023-02-28T08:11:36;6.30;99.90
54006;DHT22;39919;38.160;-122.260;2023-02-28T08:14:05;6.40;99.90
54006;DHT22;39919;38.160;-122.260;2023-02-28T08:16:34;6.20;99.90
54006;DHT22;39919;38.160;-122.260;2023-02-28T08:19:04;6.00;99.90
54006;DHT22;39919;38.160;-122.260;2023-02-28T09:01:26;5.70;99.90
54006;DHT22;39919;38.160;-122.260;2023-02-28T09:03:56;5.60;99.90
54006;DHT22;39919;38.160;-122.260;2023-02-28T09:06:26;5.60;99.90
54006;DHT22;39919;38.160;-122.260;2023-02-28T09:08:57;5.50;99.90
54006;DHT22;39919;38.160;-122.260;2023-02-28T09:11:28;5.50;99.90
54006;DHT22;39919;38.160;-122.260;2023-02-28T09:13:58;5.40;99.90
54006;DHT22;39919;38.160;-122.260;2023-02-28T09:16:29;5.30;99.90
54006;DHT22;39919;38.160;-122.260;2023-02-28T09:18:59;5.20;99.90
54006;DHT22;39919;38.160;-122.260;2023-02-28T09:21:28;5.30;99.90
54006;DHT22;39919;38.160;-122.260;2023-02-28T09:23:57;5.30;99.90
54006;DHT22;39919;38.160;-122.260;2023-02-28T09:26:27;5.20;99.90
54006;DHT22;39919;38.160;-122.260;2023-02-28T09:28:56;5.20;99.90
54006;DHT22;39919;38.160;-122.260;2023-02-28T09:31:28;4.10;99.90
54006;DHT22;39919;38.160;-122.260;2023-02-28T09:33:59;4.90;99.90
54006;DHT22;39919;38.160;-122.260;2023-02-28T09:38:59;5.10;99.90
54006;DHT22;39919;38.160;-122.260;2023-02-28T09:46:40;4.80;99.90
54006;DHT22;39919;38.160;-122.260;2023-02-28T09:49:16;4.90;99.90
54006;DHT22;39919;38.160;-122.260;2023-02-28T11:11:24;5.10;99.90
54006;DHT22;39919;38.160;-122.260;2023-02-28T12:03:26;5.90;99.90
54006;DHT22;39919;38.160;-122.260;2023-02-28T12:06:04;6.00;99.90
54006;DHT22;39919;38.160;-122.260;2023-02-28T12:09:00;6.10;99.90
54006;DHT22;39919;38.160;-122.260;2023-02-28T12:11:38;6.10;99.90
54006;DHT22;39919;38.160;-122.260;2023-02-28T12:14:31;6.20;99.90
54006;DHT22;39919;38.160;-122.260;2023-02-28T12:17:15;6.20;99.90
54006;DHT22;39919;38.160;-122.260;2023-02-28T12:19:51;6.30;99.90
54006;DHT22;39919;38.160;-122.260;2023-02-28T12:22:29;6.30;99.90
54006;DHT22;39919;38.160;-122.260;2023-02-28T12:28:01;6.30;99.90
54006;DHT22;39919;38.160;-122.260;2023-02-28T12:30:32;6.40;99.90
54006;DHT22;39919;38.160;-122.260;2023-02-28T12:33:04;6.40;99.90
54006;DHT22;39919;38.160;-122.260;2023-02-28T12:35:38;6.40;99.90
54006;DHT22;39919;38.160;-122.260;2023-02-28T12:38:12;6.50;99.90
54006;DHT22;39919;38.160;-122.260;2023-02-28T12:40:49;6.50;99.90
54006;DHT22;39919;38.160;-122.260;2023-02-28T12:43:24;6.50;99.90
54006;DHT22;39919;38.160;-122.260;2023-02-28T12:45:58;6.60;99.90
54006;DHT22;39919;38.160;-122.260;2023-02-28T12:48:31;6.60;99.90
54006;DHT22;39919;38.160;-122.260;2023-02-28T12:51:02;6.70;99.90
54006;DHT22;39919;38.160;-122.260;2023-02-28T12:53:36;6.70;99.90
54006;DHT22;39919;38.160;-122.260;2023-02-28T12:56:16;6.70;99.90
54006;DHT22;39919;38.160;-122.260;2023-02-28T12:58:49;6.80;99.90
54006;DHT22;39919;38.160;-122.260;2023-02-28T13:01:47;6.80;99.90
54006;DHT22;39919;38.160;-122.260;2023-02-28T13:10:21;6.90;99.90
54006;DHT22;39919;38.160;-122.260;2023-02-28T13:12:51;6.90;99.90
54006;DHT22;39919;38.160;-122.260;2023-02-28T13:15:24;7.00;99.90
54006;DHT22;39919;38.160;-122.260;2023-02-28T13:17:57;7.00;99.90
54006;DHT22;39919;38.160;-122.260;2023-02-28T13:20:29;7.00;99.90
54006;DHT22;39919;38.160;-122.260;2023-02-28T13:23:00;7.00;99.90
54006;DHT22;39919;38.160;-122.260;2023-02-28T13:25:52;7.10;99.90
54006;DHT22;39919;38.160;-122.260;2023-02-28T13:31:26;7.10;99.90
54006;DHT22;39919;38.160;-122.260;2023-02-28T13:34:15;7.10;99.90
54006;DHT22;39919;38.160;-122.260;2023-02-28T13:36:48;7.20;99.90
54006;DHT22;39919;38.160;-122.260;2023-02-28T13:39:47;7.20;99.90
54006;DHT22;39919;38.160;-122.260;2023-02-28T13:42:34;7.20;99.90
54006;DHT22;39919;38.160;-122.260;2023-02-28T13:45:24;7.30;99.90
54006;DHT22;39919;38.160;-122.260;2023-02-28T13:47:59;7.20;99.90
54006;DHT22;39919;38.160;-122.260;2023-02-28T13:50:34;7.30;99.90
54006;DHT22;39919;38.160;-122.260;2023-02-28T13:53:34;7.30;99.90
54006;DHT22;39919;38.160;-122.260;2023-02-28T13:56:17;7.30;99.90
54006;DHT22;39919;38.160;-122.260;2023-02-28T13:58:54;7.30;99.90
54006;DHT22;39919;38.160;-122.260;2023-02-28T14:01:41;7.30;99.90
54006;DHT22;39919;38.160;-122.260;2023-02-28T14:04:37;7.30;99.90
54006;DHT22;39919;38.160;-122.260;2023-02-28T14:07:17;7.30;99.90
54006;DHT22;39919;38.160;-122.260;2023-02-28T14:09:49;7.40;99.90
54006;DHT22;39919;38.160;-122.260;2023-02-28T14:13:01;7.30;99.90
54006;DHT22;39919;38.160;-122.260;2023-02-28T14:15:45;7.40;99.90
54006;DHT22;39919;38.160;-122.260;2023-02-28T14:18:22;7.40;99.90
54006;DHT22;39919;38.160;-122.260;2023-02-28T14:20:57;7.40;99.90
54006;DHT22;39919;38.160;-122.260;2023-02-28T14:26:58;7.50;99.90
54006;DHT22;39919;38.160;-122.260;2023-02-28T14:29:45;7.50;99.90
54006;DHT22;39919;38.160;-122.260;2023-02-28T14:32:22;7.50;99.90
54006;DHT22;39919;38.160;-122.260;2023-02-28T14:34:58;7.50;99.90
54006;DHT22;39919;38.160;-122.260;2023-02-28T14:37:36;7.60;99.90
54006;DHT22;39919;38.160;-122.260;2023-02-28T14:40:14;7.60;99.90
54006;DHT22;39919;38.160;-122.260;2023-02-28T14:42:48;7.60;99.90
54006;DHT22;39919;38.160;-122.260;2023-02-28T14:45:22;7.60;99.90
54006;DHT22;39919;38.160;-122.260;2023-02-28T14:47:52;7.60;99.90
54006;DHT22;39919;38.160;-122.260;2023-02-28T14:50:22;7.60;99.90
54006;DHT22;39919;38.160;-122.260;2023-02-28T14:52:55;7.60;99.90
54006;DHT22;39919;38.160;-122.260;2023-02-28T14:55:28;7.70;99.90
54006;DHT22;39919;38.160;-122.260;2023-02-28T14:57:59;7.70;99.90
54006;DHT22;39919;38.160;-122.260;2023-02-28T15:00:30;7.70;99.90
54006;DHT22;39919;38.160;-122.260;2023-02-28T15:03:01;7.70;99.90
54006;DHT22;39919;38.160;-122.260;2023-02-28T15:05:52;7.70;99.90
54006;DHT22;39919;38.160;-122.260;2023-02-28T15:08:24;7.70;99.90
54006;DHT22;39919;38.160;-122.260;2023-02-28T15:10:57;7.70;99.90
54006;DHT22;39919;38.160;-122.260;2023-02-28T15:13:31;7.70;99.90
54006;DHT22;39919;38.160;-122.260;2023-02-28T15:16:05;7.80;99.90
54006;DHT22;39919;38.160;-122.260;2023-02-28T15:18:44;7.80;99.90
54006;DHT22;39919;38.160;-122.260;2023-02-28T15:21:16;7.80;99.90
54006;DHT22;39919;38.160;-122.260;2023-02-28T15:23:50;7.80;99.90
54006;DHT22;39919;38.160;-122.260;2023-02-28T15:26:22;7.80;99.90
54006;DHT22;39919;38.160;-122.260;2023-02-28T15:28:58;7.80;99.90
54006;DHT22;39919;38.160;-122.260;2023-02-28T15:31:31;7.80;99.90
54006;DHT22;39919;38.160;-122.260;2023-02-28T15:34:04;7.80;99.90
54006;DHT22;39919;38.160;-122.260;2023-02-28T15:36:34;7.90;99.90
54006;DHT22;39919;38.160;-122.260;2023-02-28T15:39:19;7.90;99.90
54006;DHT22;39919;38.160;-122.260;2023-02-28T15:41:49;7.90;99.90
54006;DHT22;39919;38.160;-122.260;2023-02-28T15:44:25;7.90;99.90
54006;DHT22;39919;38.160;-122.260;2023-02-28T15:46:59;7.90;99.90
54006;DHT22;39919;38.160;-122.260;2023-02-28T15:49:32;7.90;99.90
54006;DHT22;39919;38.160;-122.260;2023-02-28T15:52:05;7.90;99.90
54006;DHT22;39919;38.160;-122.260;2023-02-28T15:54:36;7.90;99.90
54006;DHT22;39919;38.160;-122.260;2023-02-28T15:57:06;8.00;99.90
54006;DHT22;39919;38.160;-122.260;2023-02-28T15:59:37;8.00;99.90
54006;DHT22;39919;38.160;-122.260;2023-02-28T16:02:17;8.00;99.90
54006;DHT22;39919;38.160;-122.260;2023-02-28T16:05:12;8.10;99.90
54006;DHT22;39919;38.160;-122.260;2023-02-28T16:07:47;8.00;99.90
54006;DHT22;39919;38.160;-122.260;2023-02-28T16:10:18;8.10;99.90
54006;DHT22;39919;38.160;-122.260;2023-02-28T16:12:47;8.10;99.90
54006;DHT22;39919;38.160;-122.260;2023-02-28T16:15:21;8.10;99.90
54006;DHT22;39919;38.160;-122.260;2023-02-28T16:17:51;8.10;99.90
54006;DHT22;39919;38.160;-122.260;2023-02-28T16:20:23;8.10;99.90
54006;DHT22;39919;38.160;-122.260;2023-02-28T16:22:53;8.10;99.90
54006;DHT22;39919;38.160;-122.260;2023-02-28T16:25:26;8.20;99.90
54006;DHT22;39919;38.160;-122.260;2023-02-28T16:27:57;8.10;99.90
54006;DHT22;39919;38.160;-122.260;2023-02-28T16:30:28;8.20;99.90
54006;DHT22;39919;38.160;-122.260;2023-02-28T16:32:58;8.20;99.90
54006;DHT22;39919;38.160;-122.260;2023-02-28T16:35:28;8.20;99.90
54006;DHT22;39919;38.160;-122.260;2023-02-28T16:37:57;8.20;99.90
54006;DHT22;39919;38.160;-122.260;2023-02-28T16:40:28;8.30;99.90
54006;DHT22;39919;38.160;-122.260;2023-02-28T16:43:06;8.30;99.90
54006;DHT22;39919;38.160;-122.260;2023-02-28T16:48:05;8.50;99.90
54006;DHT22;39919;38.160;-122.260;2023-02-28T16:50:34;8.50;99.90
54006;DHT22;39919;38.160;-122.260;2023-02-28T16:53:03;8.50;99.90
54006;DHT22;39919;38.160;-122.260;2023-02-28T17:05:52;8.60;99.90
54006;DHT22;39919;38.160;-122.260;2023-02-28T17:08:21;8.60;99.90
54006;DHT22;39919;38.160;-122.260;2023-02-28T17:10:52;8.50;99.90
54006;DHT22;39919;38.160;-122.260;2023-02-28T17:13:21;8.60;99.90
54006;DHT22;39919;38.160;-122.260;2023-02-28T17:15:51;8.50;99.90
54006;DHT22;39919;38.160;-122.260;2023-02-28T17:18:21;8.60;99.90
54006;DHT22;39919;38.160;-122.260;2023-02-28T17:20:50;8.50;99.90
54006;DHT22;39919;38.160;-122.260;2023-02-28T17:23:19;8.60;99.90
54006;DHT22;39919;38.160;-122.260;2023-02-28T17:25:48;8.60;99.90
54006;DHT22;39919;38.160;-122.260;2023-02-28T17:28:23;8.60;99.90
54006;DHT22;39919;38.160;-122.260;2023-02-28T17:30:55;8.50;99.90
54006;DHT22;39919;38.160;-122.260;2023-02-28T17:33:24;8.60;99.90
54006;DHT22;39919;38.160;-122.260;2023-02-28T17:35:53;8.60;99.90
54006;DHT22;39919;38.160;-122.260;2023-02-28T17:38:22;8.60;99.90
54006;DHT22;39919;38.160;-122.260;2023-02-28T17:40:51;8.60;99.90
54006;DHT22;39919;38.160;-122.260;2023-02-28T17:43:26;8.70;99.90
54006;DHT22;39919;38.160;-122.260;2023-02-28T17:45:55;8.70;99.90
54006;DHT22;39919;38.160;-122.260;2023-02-28T17:48:41;8.80;99.90
54006;DHT22;39919;38.160;-122.260;2023-02-28T17:51:12;8.90;99.90
54006;DHT22;39919;38.160;-122.260;2023-02-28T17:53:44;8.90;99.90
54006;DHT22;39919;38.160;-122.260;2023-02-28T17:56:15;8.90;99.90
54006;DHT22;39919;38.160;-122.260;2023-02-28T17:58:46;8.90;99.90
54006;DHT22;39919;38.160;-122.260;2023-02-28T18:01:15;8.90;99.90
54006;DHT22;39919;38.160;-122.260;2023-02-28T18:03:44;9.10;99.90
54006;DHT22;39919;38.160;-122.260;2023-02-28T18:06:16;9.00;99.90
54006;DHT22;39919;38.160;-122.260;2023-02-28T18:08:48;9.20;99.90
54006;DHT22;39919;38.160;-122.260;2023-02-28T18:11:18;9.30;99.90
54006;DHT22;39919;38.160;-122.260;2023-02-28T18:13:50;9.30;99.90
54006;DHT22;39919;38.160;-122.260;2023-02-28T18:16:20;9.30;99.90
54006;DHT22;39919;38.160;-122.260;2023-02-28T18:18:49;9.50;99.90
54006;DHT22;39919;38.160;-122.260;2023-02-28T18:21:18;9.60;99.90
54006;DHT22;39919;38.160;-122.260;2023-02-28T18:23:47;9.70;99.90
54006;DHT22;39919;38.160;-122.260;2023-02-28T18:26:19;9.80;99.90
54006;DHT22;39919;38.160;-122.260;2023-02-28T18:28:50;9.80;99.90
54006;DHT22;39919;38.160;-122.260;2023-02-28T18:31:19;9.90;99.90
54006;DHT22;39919;38.160;-122.260;2023-02-28T18:33:50;10.10;99.90
54006;DHT22;39919;38.160;-122.260;2023-02-28T18:36:20;10.20;99.90
54006;DHT22;39919;38.160;-122.260;2023-02-28T18:38:49;10.40;99.90
54006;DHT22;39919;38.160;-122.260;2023-02-28T18:41:19;10.50;99.90
54006;DHT22;39919;38.160;-122.260;2023-02-28T18:43:50;10.70;99.90
54006;DHT22;39919;38.160;-122.260;2023-02-28T18:46:20;10.90;99.90
54006;DHT22;39919;38.160;-122.260;2023-02-28T18:48:49;11.00;99.90
54006;DHT22;39919;38.160;-122.260;2023-02-28T18:51:20;11.20;99.90
54006;DHT22;39919;38.160;-122.260;2023-02-28T18:53:49;11.30;99.90
54006;DHT22;39919;38.160;-122.260;2023-02-28T18:56:20;11.40;99.90
54006;DHT22;39919;38.160;-122.260;2023-02-28T18:58:52;11.50;99.90
54006;DHT22;39919;38.160;-122.260;2023-02-28T19:01:22;11.60;99.90
54006;DHT22;39919;38.160;-122.260;2023-02-28T19:03:52;11.80;99.90
54006;DHT22;39919;38.160;-122.260;2023-02-28T19:06:22;12.10;99.90